sensor_id;sensor_type;location;lat;lon;timestamp;P1;durP1;ratioP1;P2;durP2;ratioP2
5465;SDS011;2755;50.728;7.108;2023-05-07T00:00:02;4.93;;;3.90;;
5465;SDS011;2755;50.728;7.108;2023-05-07T00:02:32;6.67;;;4.70;;
5465;SDS011;2755;50.728;7.108;2023-05-07T00:04:57;7.37;;;4.97;;
5465;SDS011;2755;50.728;7.108;2023-05-07T00:07:23;9.33;;;6.80;;
5465;SDS011;2755;50.728;7.108;2023-05-07T00:09:49;7.30;;;4.33;;
5465;SDS011;2755;50.728;7.108;2023-05-07T00:12:14;7.30;;;4.80;;
5465;SDS011;2755;50.728;7.108;2023-05-07T00:14:40;6.03;;;3.90;;
5465;SDS011;2755;50.728;7.108;2023-05-07T00:17:05;6.37;;;4.27;;
5465;SDS011;2755;50.728;7.108;2023-05-07T00:19:31;6.43;;;4.80;;
5465;SDS011;2755;50.728;7.108;2023-05-07T00:21:57;5.30;;;4.60;;
5465;SDS011;2755;50.728;7.108;2023-05-07T00:24:23;5.97;;;4.37;;
5465;SDS011;2755;50.728;7.108;2023-05-07T00:26:49;9.13;;;3.43;;
5465;SDS011;2755;50.728;7.108;2023-05-07T00:29:15;5.70;;;4.30;;
5465;SDS011;2755;50.728;7.108;2023-05-07T00:31:40;5.67;;;3.90;;
5465;SDS011;2755;50.728;7.108;2023-05-07T00:34:06;3.63;;;3.30;;
5465;SDS011;2755;50.728;7.108;2023-05-07T00:36:31;6.90;;;3.90;;
5465;SDS011;2755;50.728;7.108;2023-05-07T00:38:58;7.10;;;4.50;;
5465;SDS011;2755;50.728;7.108;2023-05-07T00:41:25;7.37;;;3.97;;
5465;SDS011;2755;50.728;7.108;2023-05-07T00:43:51;5.83;;;4.47;;
5465;SDS011;2755;50.728;7.108;2023-05-07T00:46:17;6.73;;;4.17;;
5465;SDS011;2755;50.728;7.108;2023-05-07T00:48:44;7.30;;;3.60;;
5465;SDS011;2755;50.728;7.108;2023-05-07T00:51:10;5.27;;;4.07;;
5465;SDS011;2755;50.728;7.108;2023-05-07T00:53:36;6.00;;;3.97;;
5465;SDS011;2755;50.728;7.108;2023-05-07T00:56:02;6.07;;;4.00;;
5465;SDS011;2755;50.728;7.108;2023-05-07T00:58:28;4.97;;;4.03;;
5465;SDS011;2755;50.728;7.108;2023-05-07T01:00:53;5.70;;;4.77;;
5465;SDS011;2755;50.728;7.108;2023-05-07T01:03:19;8.40;;;4.10;;
5465;SDS011;2755;50.728;7.108;2023-05-07T01:05:45;8.93;;;4.60;;
5465;SDS011;2755;50.728;7.108;2023-05-07T01:08:13;6.40;;;3.83;;
5465;SDS011;2755;50.728;7.108;2023-05-07T01:10:40;6.53;;;4.20;;
5465;SDS011;2755;50.728;7.108;2023-05-07T01:13:08;3.63;;;3.30;;
5465;SDS011;2755;50.728;7.108;2023-05-07T01:15:37;6.93;;;4.17;;
5465;SDS011;2755;50.728;7.108;2023-05-07T01:18:05;7.17;;;4.60;;
5465;SDS011;2755;50.728;7.108;2023-05-07T01:20:31;5.87;;;3.60;;
5465;SDS011;2755;50.728;7.108;2023-05-07T01:22:57;6.23;;;4.20;;
5465;SDS011;2755;50.728;7.108;2023-05-07T01:25:23;6.63;;;4.33;;
5465;SDS011;2755;50.728;7.108;2023-05-07T01:27:49;3.87;;;3.43;;
5465;SDS011;2755;50.728;7.108;2023-05-07T01:30:15;7.27;;;3.90;;
5465;SDS011;2755;50.728;7.108;2023-05-07T01:32:48;6.60;;;4.70;;
5465;SDS011;2755;50.728;7.108;2023-05-07T01:35:18;5.67;;;3.00;;
5465;SDS011;2755;50.728;7.108;2023-05-07T01:37:47;6.27;;;4.30;;
5465;SDS011;2755;50.728;7.108;2023-05-07T01:40:14;5.20;;;3.80;;
5465;SDS011;2755;50.728;7.108;2023-05-07T01:42:43;5.70;;;4.47;;
5465;SDS011;2755;50.728;7.108;2023-05-07T01:45:10;4.80;;;3.70;;
5465;SDS011;2755;50.728;7.108;2023-05-07T01:47:36;6.17;;;3.43;;
5465;SDS011;2755;50.728;7.108;2023-05-07T01:50:03;4.73;;;3.10;;
5465;SDS011;2755;50.728;7.108;2023-05-07T01:52:30;7.13;;;4.40;;
5465;SDS011;2755;50.728;7.108;2023-05-07T01:54:56;5.73;;;3.87;;
5465;SDS011;2755;50.728;7.108;2023-05-07T01:57:22;5.57;;;3.53;;
5465;SDS011;2755;50.728;7.108;2023-05-07T01:59:47;5.37;;;4.37;;
5465;SDS011;2755;50.728;7.108;2023-05-07T02:02:13;6.60;;;4.17;;
5465;SDS011;2755;50.728;7.108;2023-05-07T02:04:39;6.80;;;5.20;;
5465;SDS011;2755;50.728;7.108;2023-05-07T02:07:04;7.27;;;4.40;;
5465;SDS011;2755;50.728;7.108;2023-05-07T02:09:30;5.47;;;4.73;;
5465;SDS011;2755;50.728;7.108;2023-05-07T02:11:56;5.73;;;4.10;;
5465;SDS011;2755;50.728;7.108;2023-05-07T02:14:21;7.57;;;4.97;;
5465;SDS011;2755;50.728;7.108;2023-05-07T02:16:47;11.23;;;4.07;;
5465;SDS011;2755;50.728;7.108;2023-05-07T02:19:12;7.90;;;5.57;;
5465;SDS011;2755;50.728;7.108;2023-05-07T02:21:38;11.13;;;4.40;;
5465;SDS011;2755;50.728;7.108;2023-05-07T02:24:04;6.93;;;5.97;;
5465;SDS011;2755;50.728;7.108;2023-05-07T02:26:30;6.47;;;5.43;;
5465;SDS011;2755;50.728;7.108;2023-05-07T02:28:55;8.03;;;6.40;;
5465;SDS011;2755;50.728;7.108;2023-05-07T02:31:21;8.20;;;5.20;;
5465;SDS011;2755;50.728;7.108;2023-05-07T02:33:46;6.50;;;4.90;;
5465;SDS011;2755;50.728;7.108;2023-05-07T02:36:12;9.40;;;6.33;;
5465;SDS011;2755;50.728;7.108;2023-05-07T02:38:38;8.20;;;5.53;;
5465;SDS011;2755;50.728;7.108;2023-05-07T02:41:04;11.63;;;5.47;;
5465;SDS011;2755;50.728;7.108;2023-05-07T02:43:30;6.67;;;5.07;;
5465;SDS011;2755;50.728;7.108;2023-05-07T02:46:02;5.73;;;4.60;;
5465;SDS011;2755;50.728;7.108;2023-05-07T02:48:32;8.63;;;6.20;;
5465;SDS011;2755;50.728;7.108;2023-05-07T02:50:58;10.97;;;6.00;;
5465;SDS011;2755;50.728;7.108;2023-05-07T02:53:25;9.50;;;6.07;;
5465;SDS011;2755;50.728;7.108;2023-05-07T02:55:55;12.60;;;7.37;;
5465;SDS011;2755;50.728;7.108;2023-05-07T02:58:22;13.77;;;7.90;;
5465;SDS011;2755;50.728;7.108;2023-05-07T03:00:47;11.13;;;7.53;;
5465;SDS011;2755;50.728;7.108;2023-05-07T03:03:14;12.80;;;6.97;;
5465;SDS011;2755;50.728;7.108;2023-05-07T03:05:39;8.57;;;5.17;;
5465;SDS011;2755;50.728;7.108;2023-05-07T03:08:05;5.93;;;4.70;;
5465;SDS011;2755;50.728;7.108;2023-05-07T03:10:31;8.27;;;5.60;;
5465;SDS011;2755;50.728;7.108;2023-05-07T03:12:57;5.80;;;4.60;;
5465;SDS011;2755;50.728;7.108;2023-05-07T03:15:23;7.03;;;5.20;;
5465;SDS011;2755;50.728;7.108;2023-05-07T03:17:48;5.80;;;4.43;;
5465;SDS011;2755;50.728;7.108;2023-05-07T03:20:14;9.70;;;6.10;;
5465;SDS011;2755;50.728;7.108;2023-05-07T03:22:40;7.47;;;4.83;;
5465;SDS011;2755;50.728;7.108;2023-05-07T03:25:06;7.10;;;4.87;;
5465;SDS011;2755;50.728;7.108;2023-05-07T03:27:32;7.40;;;5.40;;
5465;SDS011;2755;50.728;7.108;2023-05-07T03:29:58;4.80;;;3.83;;
5465;SDS011;2755;50.728;7.108;2023-05-07T03:32:23;6.97;;;5.03;;
5465;SDS011;2755;50.728;7.108;2023-05-07T03:34:49;8.33;;;5.30;;
5465;SDS011;2755;50.728;7.108;2023-05-07T03:37:15;4.53;;;3.80;;
5465;SDS011;2755;50.728;7.108;2023-05-07T03:39:40;8.93;;;4.60;;
5465;SDS011;2755;50.728;7.108;2023-05-07T03:42:06;5.20;;;3.90;;
5465;SDS011;2755;50.728;7.108;2023-05-07T03:44:32;5.63;;;3.73;;
5465;SDS011;2755;50.728;7.108;2023-05-07T03:46:57;5.00;;;3.97;;
5465;SDS011;2755;50.728;7.108;2023-05-07T03:49:23;5.70;;;4.03;;
5465;SDS011;2755;50.728;7.108;2023-05-07T03:51:48;7.47;;;4.10;;
5465;SDS011;2755;50.728;7.108;2023-05-07T03:54:14;8.63;;;4.73;;
5465;SDS011;2755;50.728;7.108;2023-05-07T03:56:39;6.10;;;4.43;;
5465;SDS011;2755;50.728;7.108;2023-05-07T03:59:05;9.83;;;4.37;;
5465;SDS011;2755;50.728;7.108;2023-05-07T04:01:31;3.70;;;3.23;;
5465;SDS011;2755;50.728;7.108;2023-05-07T04:03:56;4.60;;;3.60;;
5465;SDS011;2755;50.728;7.108;2023-05-07T04:06:22;5.27;;;3.60;;
5465;SDS011;2755;50.728;7.108;2023-05-07T04:08:48;7.30;;;3.70;;
5465;SDS011;2755;50.728;7.108;2023-05-07T04:11:13;5.27;;;3.13;;
5465;SDS011;2755;50.728;7.108;2023-05-07T04:13:39;6.47;;;3.40;;
5465;SDS011;2755;50.728;7.108;2023-05-07T04:16:05;3.90;;;3.30;;
5465;SDS011;2755;50.728;7.108;2023-05-07T04:18:31;7.03;;;4.53;;
5465;SDS011;2755;50.728;7.108;2023-05-07T04:20:57;6.07;;;4.43;;
5465;SDS011;2755;50.728;7.108;2023-05-07T04:23:22;6.03;;;3.90;;
5465;SDS011;2755;50.728;7.108;2023-05-07T04:25:48;4.53;;;3.80;;
5465;SDS011;2755;50.728;7.108;2023-05-07T04:28:13;6.27;;;4.63;;
5465;SDS011;2755;50.728;7.108;2023-05-07T04:30:39;6.83;;;4.70;;
5465;SDS011;2755;50.728;7.108;2023-05-07T04:33:06;9.13;;;5.67;;
5465;SDS011;2755;50.728;7.108;2023-05-07T04:35:32;9.10;;;5.27;;
5465;SDS011;2755;50.728;7.108;2023-05-07T04:37:58;8.57;;;6.70;;
5465;SDS011;2755;50.728;7.108;2023-05-07T04:40:23;7.10;;;5.80;;
5465;SDS011;2755;50.728;7.108;2023-05-07T04:42:49;9.63;;;6.47;;
5465;SDS011;2755;50.728;7.108;2023-05-07T04:45:14;10.07;;;6.60;;
5465;SDS011;2755;50.728;7.108;2023-05-07T04:47:40;7.30;;;5.70;;
5465;SDS011;2755;50.728;7.108;2023-05-07T04:50:06;9.77;;;6.87;;
5465;SDS011;2755;50.728;7.108;2023-05-07T04:52:33;10.00;;;6.80;;
5465;SDS011;2755;50.728;7.108;2023-05-07T04:54:59;13.50;;;6.83;;
5465;SDS011;2755;50.728;7.108;2023-05-07T04:57:25;11.30;;;6.53;;
5465;SDS011;2755;50.728;7.108;2023-05-07T04:59:51;9.50;;;6.50;;
5465;SDS011;2755;50.728;7.108;2023-05-07T05:02:17;11.80;;;8.50;;
5465;SDS011;2755;50.728;7.108;2023-05-07T05:04:43;9.20;;;7.10;;
5465;SDS011;2755;50.728;7.108;2023-05-07T05:07:09;14.90;;;8.80;;
5465;SDS011;2755;50.728;7.108;2023-05-07T05:09:34;16.80;;;7.13;;
5465;SDS011;2755;50.728;7.108;2023-05-07T05:12:00;9.87;;;6.90;;
5465;SDS011;2755;50.728;7.108;2023-05-07T05:14:26;15.60;;;6.70;;
5465;SDS011;2755;50.728;7.108;2023-05-07T05:16:51;8.37;;;6.50;;
5465;SDS011;2755;50.728;7.108;2023-05-07T05:19:17;13.10;;;7.10;;
5465;SDS011;2755;50.728;7.108;2023-05-07T05:21:43;8.00;;;6.93;;
5465;SDS011;2755;50.728;7.108;2023-05-07T05:24:08;8.47;;;6.43;;
5465;SDS011;2755;50.728;7.108;2023-05-07T05:26:34;6.97;;;5.27;;
5465;SDS011;2755;50.728;7.108;2023-05-07T05:28:59;6.97;;;4.30;;
5465;SDS011;2755;50.728;7.108;2023-05-07T05:31:25;10.90;;;5.20;;
5465;SDS011;2755;50.728;7.108;2023-05-07T05:33:51;7.67;;;5.17;;
5465;SDS011;2755;50.728;7.108;2023-05-07T05:36:17;7.10;;;4.97;;
5465;SDS011;2755;50.728;7.108;2023-05-07T05:38:43;9.03;;;5.40;;
5465;SDS011;2755;50.728;7.108;2023-05-07T05:41:09;6.40;;;4.13;;
5465;SDS011;2755;50.728;7.108;2023-05-07T05:43:35;7.47;;;4.63;;
5465;SDS011;2755;50.728;7.108;2023-05-07T05:46:01;5.53;;;4.10;;
5465;SDS011;2755;50.728;7.108;2023-05-07T05:48:27;5.73;;;4.20;;
5465;SDS011;2755;50.728;7.108;2023-05-07T05:50:54;5.23;;;4.20;;
5465;SDS011;2755;50.728;7.108;2023-05-07T05:53:19;6.13;;;4.33;;
5465;SDS011;2755;50.728;7.108;2023-05-07T05:55:45;7.73;;;5.00;;
5465;SDS011;2755;50.728;7.108;2023-05-07T05:58:11;6.50;;;3.93;;
5465;SDS011;2755;50.728;7.108;2023-05-07T06:00:36;5.17;;;3.90;;
5465;SDS011;2755;50.728;7.108;2023-05-07T06:03:02;5.00;;;3.87;;
5465;SDS011;2755;50.728;7.108;2023-05-07T06:05:28;5.43;;;4.20;;
5465;SDS011;2755;50.728;7.108;2023-05-07T06:07:53;6.53;;;3.73;;
5465;SDS011;2755;50.728;7.108;2023-05-07T06:10:19;6.30;;;3.63;;
5465;SDS011;2755;50.728;7.108;2023-05-07T06:12:45;3.37;;;3.03;;
5465;SDS011;2755;50.728;7.108;2023-05-07T06:15:11;3.03;;;2.43;;
5465;SDS011;2755;50.728;7.108;2023-05-07T06:17:36;8.63;;;3.00;;
5465;SDS011;2755;50.728;7.108;2023-05-07T06:20:02;4.83;;;2.63;;
5465;SDS011;2755;50.728;7.108;2023-05-07T06:22:28;4.60;;;3.00;;
5465;SDS011;2755;50.728;7.108;2023-05-07T06:24:54;6.43;;;2.80;;
5465;SDS011;2755;50.728;7.108;2023-05-07T06:27:19;3.30;;;2.43;;
5465;SDS011;2755;50.728;7.108;2023-05-07T06:29:47;6.27;;;2.70;;
5465;SDS011;2755;50.728;7.108;2023-05-07T06:32:13;6.20;;;2.70;;
5465;SDS011;2755;50.728;7.108;2023-05-07T06:34:39;3.80;;;3.00;;
5465;SDS011;2755;50.728;7.108;2023-05-07T06:37:05;4.10;;;2.50;;
5465;SDS011;2755;50.728;7.108;2023-05-07T06:39:31;6.10;;;3.07;;
5465;SDS011;2755;50.728;7.108;2023-05-07T06:41:57;2.60;;;2.10;;
5465;SDS011;2755;50.728;7.108;2023-05-07T06:44:23;3.17;;;2.37;;
5465;SDS011;2755;50.728;7.108;2023-05-07T06:46:49;4.40;;;2.40;;
5465;SDS011;2755;50.728;7.108;2023-05-07T06:49:14;4.37;;;2.10;;
5465;SDS011;2755;50.728;7.108;2023-05-07T06:51:40;2.43;;;2.17;;
5465;SDS011;2755;50.728;7.108;2023-05-07T06:54:06;3.23;;;2.13;;
5465;SDS011;2755;50.728;7.108;2023-05-07T06:56:32;3.63;;;2.20;;
5465;SDS011;2755;50.728;7.108;2023-05-07T06:58:59;3.60;;;2.03;;
5465;SDS011;2755;50.728;7.108;2023-05-07T07:01:25;3.00;;;2.17;;
5465;SDS011;2755;50.728;7.108;2023-05-07T07:03:51;2.90;;;1.60;;
5465;SDS011;2755;50.728;7.108;2023-05-07T07:06:16;4.50;;;2.00;;
5465;SDS011;2755;50.728;7.108;2023-05-07T07:08:42;7.50;;;2.73;;
5465;SDS011;2755;50.728;7.108;2023-05-07T07:11:08;4.47;;;2.10;;
5465;SDS011;2755;50.728;7.108;2023-05-07T07:13:35;4.67;;;1.67;;
5465;SDS011;2755;50.728;7.108;2023-05-07T07:16:00;2.23;;;1.70;;
5465;SDS011;2755;50.728;7.108;2023-05-07T07:18:26;2.93;;;1.50;;
5465;SDS011;2755;50.728;7.108;2023-05-07T07:20:51;3.20;;;1.90;;
5465;SDS011;2755;50.728;7.108;2023-05-07T07:23:17;5.33;;;2.10;;
5465;SDS011;2755;50.728;7.108;2023-05-07T07:25:43;2.77;;;1.77;;
5465;SDS011;2755;50.728;7.108;2023-05-07T07:28:09;3.30;;;1.90;;
5465;SDS011;2755;50.728;7.108;2023-05-07T07:30:35;3.37;;;1.90;;
5465;SDS011;2755;50.728;7.108;2023-05-07T07:33:01;8.20;;;2.37;;
5465;SDS011;2755;50.728;7.108;2023-05-07T07:35:31;5.87;;;2.57;;
5465;SDS011;2755;50.728;7.108;2023-05-07T07:37:57;2.67;;;1.80;;
5465;SDS011;2755;50.728;7.108;2023-05-07T07:40:23;5.53;;;2.37;;
5465;SDS011;2755;50.728;7.108;2023-05-07T07:42:50;3.70;;;2.13;;
5465;SDS011;2755;50.728;7.108;2023-05-07T07:45:16;5.53;;;1.97;;
5465;SDS011;2755;50.728;7.108;2023-05-07T07:47:41;3.80;;;1.60;;
5465;SDS011;2755;50.728;7.108;2023-05-07T07:50:07;4.97;;;2.37;;
5465;SDS011;2755;50.728;7.108;2023-05-07T07:52:34;6.20;;;2.03;;
5465;SDS011;2755;50.728;7.108;2023-05-07T07:54:59;4.30;;;2.27;;
5465;SDS011;2755;50.728;7.108;2023-05-07T07:57:25;1.73;;;1.60;;
5465;SDS011;2755;50.728;7.108;2023-05-07T07:59:51;3.67;;;2.13;;
5465;SDS011;2755;50.728;7.108;2023-05-07T08:02:17;2.23;;;1.80;;
5465;SDS011;2755;50.728;7.108;2023-05-07T08:04:43;2.27;;;1.70;;
5465;SDS011;2755;50.728;7.108;2023-05-07T08:07:09;3.30;;;2.00;;
5465;SDS011;2755;50.728;7.108;2023-05-07T08:09:36;2.30;;;1.30;;
5465;SDS011;2755;50.728;7.108;2023-05-07T08:12:05;2.30;;;1.57;;
5465;SDS011;2755;50.728;7.108;2023-05-07T08:14:32;2.20;;;1.40;;
5465;SDS011;2755;50.728;7.108;2023-05-07T08:16:57;3.87;;;1.73;;
5465;SDS011;2755;50.728;7.108;2023-05-07T08:19:23;6.20;;;1.70;;
5465;SDS011;2755;50.728;7.108;2023-05-07T08:21:49;1.83;;;1.30;;
5465;SDS011;2755;50.728;7.108;2023-05-07T08:24:14;3.83;;;1.37;;
5465;SDS011;2755;50.728;7.108;2023-05-07T08:26:41;3.20;;;1.63;;
5465;SDS011;2755;50.728;7.108;2023-05-07T08:29:07;2.40;;;1.63;;
5465;SDS011;2755;50.728;7.108;2023-05-07T08:31:33;2.00;;;1.53;;
5465;SDS011;2755;50.728;7.108;2023-05-07T08:33:58;2.83;;;1.63;;
5465;SDS011;2755;50.728;7.108;2023-05-07T08:36:24;3.23;;;1.30;;
5465;SDS011;2755;50.728;7.108;2023-05-07T08:38:51;1.40;;;1.27;;
5465;SDS011;2755;50.728;7.108;2023-05-07T08:41:17;5.03;;;2.00;;
5465;SDS011;2755;50.728;7.108;2023-05-07T08:43:45;3.90;;;1.53;;
5465;SDS011;2755;50.728;7.108;2023-05-07T08:46:16;4.83;;;1.73;;
5465;SDS011;2755;50.728;7.108;2023-05-07T08:48:44;1.50;;;1.30;;
5465;SDS011;2755;50.728;7.108;2023-05-07T08:51:13;2.67;;;1.90;;
5465;SDS011;2755;50.728;7.108;2023-05-07T08:53:40;2.70;;;1.43;;
5465;SDS011;2755;50.728;7.108;2023-05-07T08:56:07;1.70;;;1.40;;
5465;SDS011;2755;50.728;7.108;2023-05-07T08:58:34;2.60;;;1.87;;
5465;SDS011;2755;50.728;7.108;2023-05-07T09:01:01;3.17;;;1.17;;
5465;SDS011;2755;50.728;7.108;2023-05-07T09:03:32;1.83;;;1.30;;
5465;SDS011;2755;50.728;7.108;2023-05-07T09:05:58;2.20;;;1.40;;
5465;SDS011;2755;50.728;7.108;2023-05-07T09:08:24;2.10;;;1.43;;
5465;SDS011;2755;50.728;7.108;2023-05-07T09:10:51;1.20;;;1.10;;
5465;SDS011;2755;50.728;7.108;2023-05-07T09:13:17;1.20;;;0.90;;
5465;SDS011;2755;50.728;7.108;2023-05-07T09:15:43;1.60;;;1.13;;
5465;SDS011;2755;50.728;7.108;2023-05-07T09:18:09;1.60;;;1.30;;
5465;SDS011;2755;50.728;7.108;2023-05-07T09:20:36;4.60;;;1.50;;
5465;SDS011;2755;50.728;7.108;2023-05-07T09:23:02;1.57;;;1.27;;
5465;SDS011;2755;50.728;7.108;2023-05-07T09:25:31;3.37;;;1.30;;
5465;SDS011;2755;50.728;7.108;2023-05-07T09:27:58;2.30;;;1.50;;
5465;SDS011;2755;50.728;7.108;2023-05-07T09:30:28;3.00;;;1.13;;
5465;SDS011;2755;50.728;7.108;2023-05-07T09:32:55;6.23;;;1.50;;
5465;SDS011;2755;50.728;7.108;2023-05-07T09:35:22;2.33;;;1.33;;
5465;SDS011;2755;50.728;7.108;2023-05-07T09:37:52;2.67;;;1.20;;
5465;SDS011;2755;50.728;7.108;2023-05-07T09:40:22;1.43;;;1.13;;
5465;SDS011;2755;50.728;7.108;2023-05-07T09:42:51;1.47;;;0.93;;
5465;SDS011;2755;50.728;7.108;2023-05-07T09:45:29;2.70;;;0.93;;
5465;SDS011;2755;50.728;7.108;2023-05-07T09:47:56;1.50;;;1.17;;
5465;SDS011;2755;50.728;7.108;2023-05-07T09:50:27;3.73;;;1.20;;
5465;SDS011;2755;50.728;7.108;2023-05-07T09:52:54;2.40;;;1.27;;
5465;SDS011;2755;50.728;7.108;2023-05-07T09:55:21;1.10;;;1.00;;
5465;SDS011;2755;50.728;7.108;2023-05-07T09:57:50;2.00;;;1.10;;
5465;SDS011;2755;50.728;7.108;2023-05-07T10:00:17;2.40;;;1.37;;
5465;SDS011;2755;50.728;7.108;2023-05-07T10:02:45;3.30;;;1.20;;
5465;SDS011;2755;50.728;7.108;2023-05-07T10:05:14;2.50;;;0.80;;
5465;SDS011;2755;50.728;7.108;2023-05-07T10:07:40;3.77;;;1.37;;
5465;SDS011;2755;50.728;7.108;2023-05-07T10:10:06;2.30;;;1.30;;
5465;SDS011;2755;50.728;7.108;2023-05-07T10:12:32;1.93;;;1.23;;
5465;SDS011;2755;50.728;7.108;2023-05-07T10:15:04;5.10;;;1.43;;
5465;SDS011;2755;50.728;7.108;2023-05-07T10:17:35;2.97;;;1.03;;
5465;SDS011;2755;50.728;7.108;2023-05-07T10:20:01;2.40;;;1.23;;
5465;SDS011;2755;50.728;7.108;2023-05-07T10:22:28;1.40;;;1.13;;
5465;SDS011;2755;50.728;7.108;2023-05-07T10:24:57;1.20;;;1.00;;
5465;SDS011;2755;50.728;7.108;2023-05-07T10:27:27;1.37;;;0.90;;
5465;SDS011;2755;50.728;7.108;2023-05-07T10:32:47;2.30;;;1.20;;
5465;SDS011;2755;50.728;7.108;2023-05-07T10:35:22;2.23;;;1.17;;
5465;SDS011;2755;50.728;7.108;2023-05-07T10:37:54;1.57;;;1.10;;
5465;SDS011;2755;50.728;7.108;2023-05-07T10:40:20;2.07;;;1.30;;
5465;SDS011;2755;50.728;7.108;2023-05-07T10:43:04;2.30;;;0.90;;
5465;SDS011;2755;50.728;7.108;2023-05-07T10:45:30;2.77;;;1.10;;
5465;SDS011;2755;50.728;7.108;2023-05-07T10:48:06;4.33;;;1.20;;
5465;SDS011;2755;50.728;7.108;2023-05-07T10:50:35;3.30;;;1.23;;
5465;SDS011;2755;50.728;7.108;2023-05-07T10:55:46;1.20;;;0.87;;
5465;SDS011;2755;50.728;7.108;2023-05-07T11:00:59;1.70;;;0.80;;
5465;SDS011;2755;50.728;7.108;2023-05-07T11:03:26;1.13;;;0.90;;
5465;SDS011;2755;50.728;7.108;2023-05-07T11:11:43;1.30;;;0.70;;
5465;SDS011;2755;50.728;7.108;2023-05-07T11:14:13;1.20;;;1.10;;
5465;SDS011;2755;50.728;7.108;2023-05-07T11:16:39;1.90;;;1.07;;
5465;SDS011;2755;50.728;7.108;2023-05-07T11:19:06;4.40;;;1.10;;
5465;SDS011;2755;50.728;7.108;2023-05-07T11:21:36;1.80;;;0.80;;
5465;SDS011;2755;50.728;7.108;2023-05-07T11:24:07;1.30;;;0.77;;
5465;SDS011;2755;50.728;7.108;2023-05-07T11:26:44;1.30;;;0.80;;
5465;SDS011;2755;50.728;7.108;2023-05-07T11:29:18;2.00;;;0.90;;
5465;SDS011;2755;50.728;7.108;2023-05-07T11:31:48;3.90;;;1.10;;
5465;SDS011;2755;50.728;7.108;2023-05-07T11:34:24;4.40;;;0.87;;
5465;SDS011;2755;50.728;7.108;2023-05-07T11:36:51;1.83;;;1.10;;
5465;SDS011;2755;50.728;7.108;2023-05-07T11:39:24;1.43;;;0.90;;
5465;SDS011;2755;50.728;7.108;2023-05-07T11:41:50;2.00;;;1.00;;
5465;SDS011;2755;50.728;7.108;2023-05-07T11:44:16;6.47;;;1.50;;
5465;SDS011;2755;50.728;7.108;2023-05-07T11:46:44;3.83;;;0.80;;
5465;SDS011;2755;50.728;7.108;2023-05-07T11:49:10;2.13;;;1.10;;
5465;SDS011;2755;50.728;7.108;2023-05-07T11:51:36;2.70;;;0.87;;
5465;SDS011;2755;50.728;7.108;2023-05-07T11:54:05;3.73;;;0.93;;
5465;SDS011;2755;50.728;7.108;2023-05-07T11:56:33;0.93;;;0.80;;
5465;SDS011;2755;50.728;7.108;2023-05-07T11:59:00;5.63;;;1.10;;
5465;SDS011;2755;50.728;7.108;2023-05-07T12:01:26;1.07;;;0.97;;
5465;SDS011;2755;50.728;7.108;2023-05-07T12:03:51;3.00;;;1.40;;
5465;SDS011;2755;50.728;7.108;2023-05-07T12:06:17;3.77;;;1.07;;
5465;SDS011;2755;50.728;7.108;2023-05-07T12:08:44;1.17;;;1.00;;
5465;SDS011;2755;50.728;7.108;2023-05-07T12:11:22;1.60;;;0.97;;
5465;SDS011;2755;50.728;7.108;2023-05-07T12:13:50;3.43;;;0.87;;
5465;SDS011;2755;50.728;7.108;2023-05-07T12:16:15;3.40;;;1.10;;
5465;SDS011;2755;50.728;7.108;2023-05-07T12:18:42;2.53;;;1.00;;
5465;SDS011;2755;50.728;7.108;2023-05-07T12:21:08;1.40;;;0.87;;
5465;SDS011;2755;50.728;7.108;2023-05-07T12:23:36;1.90;;;1.40;;
5465;SDS011;2755;50.728;7.108;2023-05-07T12:26:02;1.40;;;0.90;;
5465;SDS011;2755;50.728;7.108;2023-05-07T12:28:28;1.47;;;0.97;;
5465;SDS011;2755;50.728;7.108;2023-05-07T12:30:55;2.40;;;1.07;;
5465;SDS011;2755;50.728;7.108;2023-05-07T12:33:25;1.40;;;0.97;;
5465;SDS011;2755;50.728;7.108;2023-05-07T12:35:53;1.83;;;1.13;;
5465;SDS011;2755;50.728;7.108;2023-05-07T12:38:20;2.50;;;0.97;;
5465;SDS011;2755;50.728;7.108;2023-05-07T12:40:47;1.43;;;0.80;;
5465;SDS011;2755;50.728;7.108;2023-05-07T12:45:42;1.90;;;1.20;;
5465;SDS011;2755;50.728;7.108;2023-05-07T12:48:11;6.50;;;1.30;;
5465;SDS011;2755;50.728;7.108;2023-05-07T12:50:37;3.47;;;1.57;;
5465;SDS011;2755;50.728;7.108;2023-05-07T12:53:05;2.90;;;1.50;;
5465;SDS011;2755;50.728;7.108;2023-05-07T12:55:32;4.37;;;2.10;;
5465;SDS011;2755;50.728;7.108;2023-05-07T13:00:45;4.80;;;1.73;;
5465;SDS011;2755;50.728;7.108;2023-05-07T13:03:13;5.73;;;2.03;;
5465;SDS011;2755;50.728;7.108;2023-05-07T13:05:50;1.67;;;1.40;;
5465;SDS011;2755;50.728;7.108;2023-05-07T13:08:23;5.23;;;1.87;;
5465;SDS011;2755;50.728;7.108;2023-05-07T13:11:09;1.50;;;1.20;;
5465;SDS011;2755;50.728;7.108;2023-05-07T13:13:36;2.50;;;1.23;;
5465;SDS011;2755;50.728;7.108;2023-05-07T13:16:04;3.80;;;1.70;;
5465;SDS011;2755;50.728;7.108;2023-05-07T13:18:31;2.90;;;2.20;;
5465;SDS011;2755;50.728;7.108;2023-05-07T13:20:57;2.07;;;1.70;;
5465;SDS011;2755;50.728;7.108;2023-05-07T13:23:23;8.93;;;1.80;;
5465;SDS011;2755;50.728;7.108;2023-05-07T13:25:48;3.50;;;1.30;;
5465;SDS011;2755;50.728;7.108;2023-05-07T13:28:15;3.83;;;2.20;;
5465;SDS011;2755;50.728;7.108;2023-05-07T13:30:41;2.90;;;1.97;;
5465;SDS011;2755;50.728;7.108;2023-05-07T13:33:06;4.60;;;1.73;;
5465;SDS011;2755;50.728;7.108;2023-05-07T13:35:32;2.50;;;1.50;;
5465;SDS011;2755;50.728;7.108;2023-05-07T13:37:58;2.27;;;1.67;;
5465;SDS011;2755;50.728;7.108;2023-05-07T13:40:24;2.50;;;1.87;;
5465;SDS011;2755;50.728;7.108;2023-05-07T13:42:49;3.07;;;2.10;;
5465;SDS011;2755;50.728;7.108;2023-05-07T13:45:16;4.03;;;1.30;;
5465;SDS011;2755;50.728;7.108;2023-05-07T13:47:45;1.77;;;1.10;;
5465;SDS011;2755;50.728;7.108;2023-05-07T13:50:11;3.63;;;1.40;;
5465;SDS011;2755;50.728;7.108;2023-05-07T13:52:39;1.80;;;1.23;;
5465;SDS011;2755;50.728;7.108;2023-05-07T13:55:10;3.77;;;1.60;;
5465;SDS011;2755;50.728;7.108;2023-05-07T13:57:36;2.00;;;1.90;;
5465;SDS011;2755;50.728;7.108;2023-05-07T14:00:03;1.70;;;1.50;;
5465;SDS011;2755;50.728;7.108;2023-05-07T14:02:35;3.70;;;1.60;;
5465;SDS011;2755;50.728;7.108;2023-05-07T14:05:00;1.87;;;1.40;;
5465;SDS011;2755;50.728;7.108;2023-05-07T14:07:26;2.50;;;1.30;;
5465;SDS011;2755;50.728;7.108;2023-05-07T14:09:52;2.37;;;1.30;;
5465;SDS011;2755;50.728;7.108;2023-05-07T14:12:17;3.53;;;1.50;;
5465;SDS011;2755;50.728;7.108;2023-05-07T14:14:44;3.17;;;1.33;;
5465;SDS011;2755;50.728;7.108;2023-05-07T14:17:10;3.10;;;1.60;;
5465;SDS011;2755;50.728;7.108;2023-05-07T14:19:36;2.07;;;1.40;;
5465;SDS011;2755;50.728;7.108;2023-05-07T14:22:01;3.80;;;1.63;;
5465;SDS011;2755;50.728;7.108;2023-05-07T14:24:27;2.47;;;1.70;;
5465;SDS011;2755;50.728;7.108;2023-05-07T14:26:53;3.47;;;1.87;;
5465;SDS011;2755;50.728;7.108;2023-05-07T14:29:18;2.37;;;1.77;;
5465;SDS011;2755;50.728;7.108;2023-05-07T14:31:44;1.80;;;1.23;;
5465;SDS011;2755;50.728;7.108;2023-05-07T14:34:10;1.70;;;1.00;;
5465;SDS011;2755;50.728;7.108;2023-05-07T14:36:36;2.70;;;1.00;;
5465;SDS011;2755;50.728;7.108;2023-05-07T14:39:02;1.80;;;1.27;;
5465;SDS011;2755;50.728;7.108;2023-05-07T14:41:28;1.30;;;1.00;;
5465;SDS011;2755;50.728;7.108;2023-05-07T14:43:54;4.70;;;2.07;;
5465;SDS011;2755;50.728;7.108;2023-05-07T14:46:19;2.03;;;1.30;;
5465;SDS011;2755;50.728;7.108;2023-05-07T14:48:45;2.13;;;1.10;;
5465;SDS011;2755;50.728;7.108;2023-05-07T14:51:12;1.67;;;0.97;;
5465;SDS011;2755;50.728;7.108;2023-05-07T14:53:37;2.07;;;1.00;;
5465;SDS011;2755;50.728;7.108;2023-05-07T14:56:03;3.80;;;1.37;;
5465;SDS011;2755;50.728;7.108;2023-05-07T14:58:31;1.43;;;0.90;;
5465;SDS011;2755;50.728;7.108;2023-05-07T15:00:56;2.00;;;1.40;;
5465;SDS011;2755;50.728;7.108;2023-05-07T15:03:22;3.83;;;1.30;;
5465;SDS011;2755;50.728;7.108;2023-05-07T15:05:48;1.60;;;1.17;;
5465;SDS011;2755;50.728;7.108;2023-05-07T15:08:16;3.90;;;1.40;;
5465;SDS011;2755;50.728;7.108;2023-05-07T15:10:42;3.17;;;1.43;;
5465;SDS011;2755;50.728;7.108;2023-05-07T15:13:08;2.47;;;1.50;;
5465;SDS011;2755;50.728;7.108;2023-05-07T15:15:34;3.10;;;1.60;;
5465;SDS011;2755;50.728;7.108;2023-05-07T15:17:59;2.60;;;1.50;;
5465;SDS011;2755;50.728;7.108;2023-05-07T15:20:26;2.90;;;1.60;;
5465;SDS011;2755;50.728;7.108;2023-05-07T15:22:51;3.80;;;1.97;;
5465;SDS011;2755;50.728;7.108;2023-05-07T15:25:17;4.80;;;2.10;;
5465;SDS011;2755;50.728;7.108;2023-05-07T15:27:43;2.93;;;1.97;;
5465;SDS011;2755;50.728;7.108;2023-05-07T15:30:09;3.07;;;1.93;;